Time;durP1;ratioP1;P1;durP2;ratioP2;P2;SDS_P1;SDS_P2;PMS_P1;PMS_P2;Temp;Humidity;BMP_temperature;BMP_pressure;BME280_temperature;BME280_humidity;BME280_pressure;Samples;Min_cycle;Max_cycle;Signal;HPM_P1;HPM_P2
2022/01/31 00:00:54;;;;;;;6.38;1.83;;;;;;;3.43;71.84;100247.03;5092382;28;20135;-74
2022/01/31 00:03:19;;;;;;;9.38;1.98;;;;;;;3.44;71.40;100216.75;5093845;28;20471;-75
2022/01/31 00:05:44;;;;;;;4.70;2.40;;;;;;;3.43;71.63;100219.56;5092552;28;20420;-74
2022/01/31 00:08:10;;;;;;;7.23;2.57;;;;;;;3.44;71.36;100207.94;5093638;28;20771;-73
2022/01/31 00:10:35;;;;;;;5.57;1.70;;;;;;;3.40;71.49;100193.28;5093553;28;20028;-73
2022/01/31 00:13:05;;;;;;;11.82;2.00;;;;;;;3.42;71.58;100200.09;5093866;28;20250;-73
2022/01/31 00:15:37;;;;;;;7.45;2.00;;;;;;;3.39;71.33;100207.59;5093424;28;20432;-73
2022/01/31 00:18:02;;;;;;;7.78;1.98;;;;;;;3.40;71.57;100203.94;5093267;28;20031;-73
2022/01/31 00:20:27;;;;;;;5.97;1.48;;;;;;;3.42;71.44;100213.41;5093403;28;20085;-73
2022/01/31 00:22:53;;;;;;;6.13;2.07;;;;;;;3.41;71.17;100217.06;5093544;28;20028;-75
2022/01/31 00:25:18;;;;;;;9.83;1.83;;;;;;;3.44;71.52;100206.09;5093283;28;20475;-74
2022/01/31 00:27:43;;;;;;;10.47;1.77;;;;;;;3.45;71.28;100191.78;5093478;28;20284;-73
2022/01/31 00:30:09;;;;;;;9.53;1.97;;;;;;;3.43;71.32;100190.28;5093467;28;20261;-74
2022/01/31 00:32:35;;;;;;;6.57;1.83;;;;;;;3.43;71.33;100158.31;5093385;28;20269;-74
2022/01/31 00:35:01;;;;;;;6.30;1.95;;;;;;;3.37;71.24;100143.84;5093435;28;20036;-73
2022/01/31 00:37:26;;;;;;;4.07;1.50;;;;;;;3.38;71.24;100136.69;5093490;28;20032;-74
2022/01/31 00:39:51;;;;;;;7.47;1.50;;;;;;;3.39;71.65;100133.03;5093366;28;20174;-73
2022/01/31 00:42:19;;;;;;;5.88;1.38;;;;;;;3.35;71.83;100134.34;5093540;28;20382;-74
2022/01/31 00:44:53;;;;;;;6.68;2.05;;;;;;;3.37;71.57;100137.69;5093369;28;20032;-73
2022/01/31 00:47:23;;;;;;;5.95;1.38;;;;;;;3.37;71.80;100138.53;5093240;28;20031;-73
2022/01/31 00:49:53;;;;;;;6.43;1.40;;;;;;;3.39;72.10;100125.88;5096022;28;20038;-74
2022/01/31 00:52:19;;;;;;;4.32;1.17;;;;;;;3.44;71.96;100106.72;5097536;28;20032;-75
2022/01/31 00:54:46;;;;;;;5.13;1.67;;;;;;;3.48;71.96;100087.59;5097391;28;20024;-74
2022/01/31 00:57:11;;;;;;;3.22;1.30;;;;;;;3.44;72.07;100078.25;5095979;28;20028;-73
2022/01/31 00:59:36;;;;;;;9.25;1.67;;;;;;;3.49;71.77;100061.78;5097487;28;20162;-74
2022/01/31 01:02:03;;;;;;;8.73;1.40;;;;;;;3.45;72.44;100057.78;5097329;28;20032;-73
2022/01/31 01:04:28;;;;;;;6.68;1.92;;;;;;;3.46;72.66;100032.81;5096961;28;20035;-73
2022/01/31 01:06:53;;;;;;;4.95;1.25;;;;;;;3.47;72.46;100021.16;5097002;28;20036;-72
2022/01/31 01:09:18;;;;;;;4.40;1.53;;;;;;;3.49;72.67;100013.84;5096836;28;20024;-73
2022/01/31 01:11:44;;;;;;;4.93;1.60;;;;;;;3.51;72.53;100013.66;5097089;28;20032;-73
2022/01/31 01:14:09;;;;;;;3.90;1.17;;;;;;;3.48;72.61;99998.84;5097009;28;20046;-74
2022/01/31 01:16:35;;;;;;;5.65;1.38;;;;;;;3.47;72.49;99987.38;5097045;28;20035;-74
2022/01/31 01:19:00;;;;;;;7.72;1.65;;;;;;;3.52;72.34;99981.53;5096968;28;20034;-75
2022/01/31 01:21:26;;;;;;;7.45;2.20;;;;;;;3.45;72.86;99978.72;5096908;28;20035;-73
2022/01/31 01:23:51;;;;;;;6.82;1.38;;;;;;;3.44;72.98;99949.56;5096898;28;20024;-73
2022/01/31 01:26:18;;;;;;;5.97;1.77;;;;;;;3.42;73.20;99946.25;5096823;28;20058;-74
2022/01/31 01:28:45;;;;;;;8.07;1.70;;;;;;;3.41;73.34;99928.59;5096477;28;20028;-74
2022/01/31 01:31:10;;;;;;;4.05;1.85;;;;;;;3.45;73.34;99919.28;5096708;28;20047;-72
2022/01/31 01:33:39;;;;;;;4.07;1.58;;;;;;;3.40;73.42;99911.78;5096378;28;20459;-73
2022/01/31 01:36:06;;;;;;;4.18;1.65;;;;;;;3.41;73.50;99876.19;5096329;28;20028;-74
2022/01/31 01:38:32;;;;;;;6.55;1.70;;;;;;;3.40;73.72;99857.75;5096266;28;20430;-74
2022/01/31 01:40:59;;;;;;;9.32;3.38;;;;;;;3.50;73.04;99847.69;5096498;28;20067;-72
2022/01/31 01:43:25;;;;;;;11.27;2.28;;;;;;;3.54;73.03;99837.53;5096202;28;20471;-75
2022/01/31 01:45:51;;;;;;;;;;;;;;;3.44;73.53;99830.56;5096866;28;20042;-72
2022/01/31 01:48:17;;;;;;;6.15;1.55;;;;;;;3.42;74.00;99840.56;5096066;28;19912;-73
2022/01/31 01:50:42;;;;;;;4.68;1.55;;;;;;;3.46;73.76;99812.59;5095097;28;20039;-73
2022/01/31 01:53:08;;;;;;;6.15;1.60;;;;;;;3.46;73.91;99798.44;5096303;28;20435;-74
2022/01/31 01:55:35;;;;;;;6.22;1.60;;;;;;;3.48;73.94;99793.75;5096084;28;20032;-74
2022/01/31 01:58:03;;;;;;;6.28;1.35;;;;;;;3.52;73.88;99781.75;5094836;28;20485;-74
2022/01/31 02:00:43;;;;;;;5.68;1.40;;;;;;;3.51;73.60;99753.47;5094722;28;20052;-73
2022/01/31 02:03:09;;;;;;;6.57;1.85;;;;;;;3.53;73.87;99746.13;5096229;28;20067;-72
2022/01/31 02:05:34;;;;;;;8.23;1.80;;;;;;;3.54;74.18;99747.78;5094741;28;20074;-73
2022/01/31 02:07:59;;;;;;;6.57;1.52;;;;;;;3.50;74.47;99722.50;5096038;28;20056;-73
2022/01/31 02:10:25;;;;;;;10.67;1.70;;;;;;;3.46;75.26;99715.88;5096350;28;20031;-73
2022/01/31 02:12:51;;;;;;;6.00;2.05;;;;;;;3.37;76.99;99716.94;5096223;28;20269;-75
2022/01/31 02:15:18;;;;;;;5.35;1.70;;;;;;;3.20;78.62;99710.06;5095858;28;20463;-74
2022/01/31 02:17:43;;;;;;;5.30;1.17;;;;;;;3.08;79.51;99704.28;5095596;28;20508;-74
2022/01/31 02:20:10;;;;;;;5.10;1.70;;;;;;;2.99;80.53;99697.34;5095908;28;20114;-74
2022/01/31 02:22:36;;;;;;;6.15;1.77;;;;;;;2.91;81.54;99692.88;5095386;28;20085;-73
2022/01/31 02:25:03;;;;;;;6.15;2.05;;;;;;;2.83;82.30;99678.81;5094589;28;20024;-74
2022/01/31 02:27:35;;;;;;;5.80;1.83;;;;;;;2.75;83.40;99677.00;5095712;28;20467;-74
2022/01/31 02:30:01;;;;;;;6.88;2.00;;;;;;;2.64;84.87;99656.94;5095605;28;20028;-74
2022/01/31 02:32:26;;;;;;;10.13;1.30;;;;;;;2.60;85.38;99654.78;5094383;28;20036;-73
2022/01/31 02:34:52;;;;;;;7.97;1.35;;;;;;;2.52;86.64;99638.84;5095254;28;20032;-74
2022/01/31 02:37:19;;;;;;;6.53;2.30;;;;;;;2.54;86.54;99642.16;5095275;28;20093;-74
2022/01/31 02:39:45;;;;;;;9.77;1.95;;;;;;;2.56;86.85;99635.69;5095167;28;20035;-74
2022/01/31 02:42:11;;;;;;;4.15;1.65;;;;;;;2.54;87.31;99635.03;5095355;28;20070;-74
2022/01/31 02:44:40;;;;;;;;;;;;;;;2.43;87.75;99638.06;5095837;28;20035;-75
2022/01/31 02:47:10;;;;;;;4.43;2.00;;;;;;;2.35;88.14;99628.28;5094072;28;19912;-74
2022/01/31 02:49:45;;;;;;;4.30;1.92;;;;;;;2.23;88.77;99629.66;5095248;28;20382;-75
2022/01/31 02:52:13;;;;;;;3.75;1.20;;;;;;;2.14;88.99;99609.44;5095190;28;20066;-74
2022/01/31 02:54:38;;;;;;;5.30;1.55;;;;;;;2.12;89.72;99605.28;5094931;28;20380;-74
2022/01/31 02:57:04;;;;;;;7.43;2.20;;;;;;;2.09;90.51;99601.13;5095070;28;20024;-73
2022/01/31 02:59:31;;;;;;;4.25;1.70;;;;;;;2.13;90.21;99602.47;5095088;28;20282;-74
2022/01/31 03:01:57;;;;;;;7.13;2.30;;;;;;;2.11;90.89;99587.69;5093661;28;20036;-74
2022/01/31 03:04:22;;;;;;;6.00;1.80;;;;;;;2.10;91.35;99576.22;5094978;28;20035;-74
2022/01/31 03:06:49;;;;;;;8.23;2.37;;;;;;;2.12;91.33;99568.06;5094640;28;20493;-74
2022/01/31 03:09:15;;;;;;;8.00;2.25;;;;;;;2.13;91.66;99565.25;5094882;28;20028;-73
2022/01/31 03:11:40;;;;;;;;;;;;;;;2.10;91.77;99547.00;5094560;28;20028;-73
2022/01/31 03:14:06;;;;;;;7.72;1.60;;;;;;;2.11;91.51;99548.66;5094450;28;19930;-72
2022/01/31 03:16:33;;;;;;;4.82;1.40;;;;;;;2.14;92.30;99537.69;5094443;28;20020;-73
2022/01/31 03:18:58;;;;;;;4.35;1.60;;;;;;;2.14;91.77;99545.66;5094797;28;20039;-73
2022/01/31 03:21:24;;;;;;;3.15;1.40;;;;;;;2.12;92.37;99544.16;5094281;28;20027;-74
2022/01/31 03:23:50;;;;;;;3.60;1.75;;;;;;;2.12;92.64;99530.88;5094957;28;20435;-74
2022/01/31 03:26:17;;;;;;;6.53;1.58;;;;;;;2.17;92.89;99544.44;5093356;28;20028;-74
2022/01/31 03:28:43;;;;;;;5.68;1.55;;;;;;;2.12;92.60;99520.25;5094398;28;20044;-74
2022/01/31 03:31:08;;;;;;;6.90;1.52;;;;;;;2.10;92.73;99533.72;5094433;28;20470;-74
2022/01/31 03:33:33;;;;;;;2.95;1.23;;;;;;;2.11;92.67;99519.41;5094074;28;20032;-74
2022/01/31 03:35:59;;;;;;;5.22;1.83;;;;;;;2.09;92.97;99497.50;5094655;28;20115;-73
2022/01/31 03:38:25;;;;;;;3.90;1.45;;;;;;;2.09;93.12;99498.34;5094290;28;20114;-74
2022/01/31 03:40:50;;;;;;;6.32;1.67;;;;;;;2.13;93.21;99511.28;5093018;28;20058;-74
2022/01/31 03:43:15;;;;;;;3.30;1.23;;;;;;;2.16;93.19;99501.09;5094282;28;20055;-73
2022/01/31 03:45:41;;;;;;;5.35;1.50;;;;;;;2.24;93.80;99477.16;5094175;28;20031;-72
2022/01/31 03:48:07;;;;;;;6.38;1.50;;;;;;;2.28;93.48;99475.81;5092809;28;20036;-73
2022/01/31 03:50:32;;;;;;;3.13;1.48;;;;;;;2.33;92.88;99454.81;5092806;28;20120;-73
2022/01/31 03:52:57;;;;;;;4.78;1.33;;;;;;;2.37;93.03;99457.97;5093985;28;20119;-73
2022/01/31 03:55:23;;;;;;;10.10;1.98;;;;;;;2.35;93.43;99458.13;5093808;28;20035;-74
2022/01/31 03:57:52;;;;;;;5.55;1.70;;;;;;;2.39;93.39;99455.97;5093620;28;20036;-73
2022/01/31 04:00:18;;;;;;;4.20;2.10;;;;;;;2.46;93.96;99446.28;5093925;28;20150;-74
2022/01/31 04:02:44;;;;;;;4.82;1.45;;;;;;;2.46;93.85;99422.38;5093910;28;20020;-74
2022/01/31 04:05:10;;;;;;;6.80;2.00;;;;;;;2.50;94.12;99433.47;5093464;28;20031;-73
2022/01/31 04:07:35;;;;;;;11.90;2.42;;;;;;;2.56;93.96;99427.44;5093393;28;20040;-73
2022/01/31 04:10:03;;;;;;;7.20;1.90;;;;;;;2.58;93.77;99418.28;5093938;28;20367;-73
2022/01/31 04:12:28;;;;;;;4.13;1.67;;;;;;;2.61;94.00;99383.34;5094074;28;20035;-73
2022/01/31 04:14:53;;;;;;;8.87;1.80;;;;;;;2.69;93.89;99393.06;5092406;28;20039;-73
2022/01/31 04:17:20;;;;;;;7.77;2.13;;;;;;;2.71;93.69;99388.41;5093669;28;20270;-73
2022/01/31 04:19:48;;;;;;;8.05;2.55;;;;;;;2.78;94.24;99411.47;5093353;28;20254;-74
2022/01/31 04:22:18;;;;;;;5.40;2.50;;;;;;;2.81;94.54;99423.59;5093480;28;20077;-73
2022/01/31 04:24:46;;;;;;;9.10;2.90;;;;;;;2.84;94.65;99417.06;5093480;28;20024;-74
2022/01/31 04:27:17;;;;;;;9.10;3.20;;;;;;;2.94;94.32;99415.81;5093587;28;20455;-74
2022/01/31 04:29:44;;;;;;;10.73;3.95;;;;;;;2.95;94.58;99412.13;5093392;28;20485;-74
2022/01/31 04:32:09;;;;;;;7.35;2.88;;;;;;;2.98;94.53;99398.47;5093276;28;20477;-73
2022/01/31 04:34:34;;;;;;;8.77;3.58;;;;;;;3.05;94.64;99387.91;5093546;28;20028;-73
2022/01/31 04:37:01;;;;;;;10.15;3.55;;;;;;;3.12;94.44;99395.00;5093198;28;20075;-73
2022/01/31 04:39:28;;;;;;;;;;;;;;;3.11;94.02;99396.00;5093852;28;20062;-73
2022/01/31 04:41:53;;;;;;;10.68;3.30;;;;;;;3.20;94.81;99390.63;5093300;28;19956;-73
2022/01/31 04:44:19;;;;;;;9.48;3.38;;;;;;;3.29;94.52;99392.16;5093422;28;20127;-73
2022/01/31 04:46:49;;;;;;;9.52;3.22;;;;;;;3.37;94.33;99397.41;5092993;28;20032;-74
2022/01/31 04:49:16;;;;;;;11.73;3.80;;;;;;;3.38;94.41;99393.75;5093246;28;20024;-74
2022/01/31 04:51:41;;;;;;;6.25;3.08;;;;;;;3.43;94.69;99388.66;5091938;28;20024;-73
2022/01/31 04:54:07;;;;;;;10.25;2.85;;;;;;;3.45;94.92;99384.00;5092968;28;20035;-73
2022/01/31 04:56:33;;;;;;;10.20;3.37;;;;;;;3.46;94.56;99381.16;5093111;28;20040;-73
2022/01/31 04:58:58;;;;;;;8.23;3.08;;;;;;;3.52;94.43;99365.44;5093208;28;20286;-73
2022/01/31 05:01:23;;;;;;;6.80;3.28;;;;;;;3.54;94.63;99368.75;5092940;28;20107;-73
2022/01/31 05:03:49;;;;;;;13.55;3.00;;;;;;;3.59;95.35;99372.50;5093048;28;20458;-73
2022/01/31 05:06:18;;;;;;;5.72;2.80;;;;;;;3.59;94.87;99364.50;5093219;28;20454;-74
2022/01/31 05:08:44;;;;;;;7.28;3.35;;;;;;;3.63;94.80;99354.31;5091666;28;20086;-74
2022/01/31 05:11:11;;;;;;;7.68;2.97;;;;;;;3.65;94.70;99353.13;5093015;28;20032;-74
2022/01/31 05:13:39;;;;;;;7.20;3.17;;;;;;;3.70;94.58;99345.41;5092773;28;20024;-74
2022/01/31 05:16:05;;;;;;;7.50;3.45;;;;;;;3.71;94.51;99333.72;5091661;28;20028;-75
2022/01/31 05:18:31;;;;;;;8.50;2.70;;;;;;;3.76;94.29;99357.16;5093066;28;20123;-74
2022/01/31 05:20:57;;;;;;;9.15;2.90;;;;;;;3.83;94.01;99332.22;5092635;28;20034;-74
2022/01/31 05:23:22;;;;;;;7.97;2.58;;;;;;;3.82;93.85;99341.22;5092699;28;20174;-74
2022/01/31 05:25:47;;;;;;;9.05;3.03;;;;;;;3.86;94.35;99332.84;5091686;28;20040;-74
2022/01/31 05:28:13;;;;;;;6.90;3.03;;;;;;;3.89;94.42;99346.63;5092681;28;20039;-74
2022/01/31 05:30:38;;;;;;;8.15;2.75;;;;;;;3.87;94.76;99345.16;5092486;28;20337;-74
2022/01/31 05:33:04;;;;;;;9.32;2.92;;;;;;;3.87;94.66;99339.84;5092664;28;20028;-75
2022/01/31 05:35:29;;;;;;;8.77;2.67;;;;;;;3.93;94.39;99333.78;5094821;28;20089;-74
2022/01/31 05:37:55;;;;;;;7.55;2.58;;;;;;;3.93;94.26;99333.78;5095237;28;20039;-74
2022/01/31 05:40:20;;;;;;;14.98;4.22;;;;;;;3.92;94.37;99321.47;5096491;28;20039;-74
2022/01/31 05:42:46;;;;;;;7.60;3.25;;;;;;;3.92;94.28;99327.59;5095233;28;20131;-73
2022/01/31 05:45:11;;;;;;;9.60;2.93;;;;;;;3.94;94.50;99328.22;5096493;28;20029;-73
2022/01/31 05:47:37;;;;;;;11.53;2.90;;;;;;;4.03;94.48;99329.78;5096144;28;20282;-73
2022/01/31 05:50:04;;;;;;;9.20;2.47;;;;;;;4.02;94.53;99338.78;5096404;28;20727;-74
2022/01/31 05:52:30;;;;;;;8.25;2.55;;;;;;;4.05;93.90;99318.91;5095762;28;20035;-74
2022/01/31 05:54:56;;;;;;;7.03;2.10;;;;;;;4.02;93.94;99305.97;5096255;28;20085;-74
2022/01/31 05:57:21;;;;;;;7.60;2.65;;;;;;;3.99;94.15;99314.34;5095942;28;20462;-74
2022/01/31 05:59:46;;;;;;;6.10;3.13;;;;;;;3.99;93.71;99304.50;5096547;28;20044;-74
2022/01/31 06:02:12;;;;;;;10.48;3.10;;;;;;;4.08;93.80;99299.88;5094745;28;20040;-74
2022/01/31 06:04:37;;;;;;;11.93;2.83;;;;;;;4.03;93.86;99296.97;5095764;28;20031;-75
2022/01/31 06:07:03;;;;;;;8.25;2.65;;;;;;;4.02;93.70;99297.97;5094412;28;20039;-74
2022/01/31 06:09:31;;;;;;;9.00;2.60;;;;;;;4.02;93.68;99305.97;5094436;28;20415;-74
2022/01/31 06:11:57;;;;;;;7.32;2.75;;;;;;;4.03;93.70;99296.97;5096198;28;20406;-75
2022/01/31 06:14:22;;;;;;;6.35;1.98;;;;;;;4.08;93.59;99291.88;5094560;28;20032;-76
2022/01/31 06:16:47;;;;;;;11.03;2.90;;;;;;;4.01;93.83;99277.66;5095539;28;20036;-74
2022/01/31 06:19:13;;;;;;;10.05;2.50;;;;;;;4.03;93.57;99276.47;5095327;28;20028;-74
2022/01/31 06:21:39;;;;;;;4.30;2.25;;;;;;;4.04;92.90;99279.94;5095129;28;20036;-75
2022/01/31 06:24:09;;;;;;;11.80;1.90;;;;;;;4.05;92.56;99285.09;5095308;28;20437;-75
2022/01/31 06:26:35;;;;;;;7.68;2.30;;;;;;;4.05;92.75;99290.44;5095261;28;20032;-74
2022/01/31 06:29:01;;;;;;;14.10;4.05;;;;;;;4.10;93.09;99284.53;5095052;28;20043;-74
2022/01/31 06:31:27;;;;;;;10.70;2.10;;;;;;;4.10;92.50;99281.88;5095341;28;20036;-74
2022/01/31 06:33:52;;;;;;;;;;;;;;;4.12;92.09;99267.31;5095433;28;20389;-74
2022/01/31 06:36:18;;;;;;;8.27;2.42;;;;;;;4.13;91.98;99268.94;5095298;28;19912;-75
2022/01/31 06:38:45;;;;;;;5.80;1.95;;;;;;;4.08;92.85;99252.72;5095459;28;20531;-74
2022/01/31 06:41:11;;;;;;;12.32;1.70;;;;;;;4.08;92.06;99270.56;5094870;28;20064;-75
2022/01/31 06:43:37;;;;;;;9.65;2.25;;;;;;;4.12;91.95;99251.31;5095207;28;20033;-74
2022/01/31 06:46:02;;;;;;;11.13;2.60;;;;;;;4.08;92.46;99251.91;5093500;28;20039;-74
2022/01/31 06:48:28;;;;;;;4.67;1.63;;;;;;;4.07;92.03;99263.59;5094543;28;20032;-74
2022/01/31 06:50:53;;;;;;;6.43;1.63;;;;;;;4.02;92.29;99264.16;5094418;28;20039;-73
2022/01/31 06:53:25;;;;;;;4.17;1.33;;;;;;;4.00;92.23;99260.84;5095147;28;20467;-74
2022/01/31 06:55:51;;;;;;;5.10;1.33;;;;;;;3.97;92.31;99260.41;5094430;28;20274;-73
2022/01/31 06:58:16;;;;;;;5.72;1.42;;;;;;;3.83;90.68;99270.94;5093229;28;20028;-73
2022/01/31 07:00:42;;;;;;;8.50;1.13;;;;;;;3.68;91.31;99274.66;5094133;28;20048;-73
2022/01/31 07:03:10;;;;;;;2.20;1.00;;;;;;;3.47;91.60;99292.25;5094631;28;20120;-76
2022/01/31 07:05:36;;;;;;;3.10;1.00;;;;;;;3.19;92.14;99303.78;5094634;28;20474;-73
2022/01/31 07:08:02;;;;;;;2.78;0.88;;;;;;;3.04;92.10;99295.81;5094288;28;20383;-76
2022/01/31 07:10:29;;;;;;;2.75;1.02;;;;;;;2.94;93.21;99306.72;5094475;28;20044;-74
2022/01/31 07:12:56;;;;;;;3.13;0.82;;;;;;;2.86;94.03;99298.00;5094205;28;20520;-74
2022/01/31 07:15:21;;;;;;;6.45;1.52;;;;;;;2.79;94.63;99298.72;5094112;28;20402;-74
2022/01/31 07:17:47;;;;;;;2.15;0.85;;;;;;;2.79;94.61;99287.25;5094033;28;20024;-74
2022/01/31 07:20:22;;;;;;;1.70;0.73;;;;;;;2.87;94.78;99286.34;5094274;28;20038;-74
2022/01/31 07:23:01;;;;;;;2.72;0.90;;;;;;;2.84;95.34;99281.41;5094179;28;20035;-73
2022/01/31 07:25:35;;;;;;;4.50;1.13;;;;;;;2.86;94.62;99280.22;5093653;28;20024;-74
2022/01/31 07:28:08;;;;;;;2.00;0.70;;;;;;;2.80;94.92;99272.97;5093978;28;20032;-75
2022/01/31 07:30:33;;;;;;;2.70;0.70;;;;;;;2.79;95.13;99282.78;5093878;28;20051;-75
2022/01/31 07:32:59;;;;;;;2.55;0.98;;;;;;;2.81;95.53;99274.63;5093514;28;20448;-74
2022/01/31 07:35:24;;;;;;;7.18;1.60;;;;;;;2.81;95.10;99271.13;5093440;28;20032;-74
2022/01/31 07:37:50;;;;;;;5.90;1.00;;;;;;;2.83;95.16;99280.56;5093391;28;20118;-74
2022/01/31 07:40:15;;;;;;;3.90;0.73;;;;;;;2.82;95.47;99281.59;5093543;28;20023;-74
2022/01/31 07:42:40;;;;;;;5.25;1.40;;;;;;;2.82;95.57;99257.66;5093649;28;20024;-74
2022/01/31 07:45:06;;;;;;;6.30;1.27;;;;;;;2.91;95.47;99269.81;5093566;28;20040;-74
2022/01/31 07:47:32;;;;;;;3.38;1.50;;;;;;;2.89;95.26;99271.00;5093546;28;20480;-74
2022/01/31 07:49:57;;;;;;;3.92;1.02;;;;;;;2.91;95.51;99258.34;5092271;28;20047;-74
2022/01/31 07:52:23;;;;;;;6.27;1.43;;;;;;;2.94;95.69;99265.97;5093234;28;20036;-73
2022/01/31 07:54:48;;;;;;;3.20;1.40;;;;;;;2.90;95.32;99262.84;5093005;28;20304;-75
2022/01/31 07:57:14;;;;;;;11.23;1.60;;;;;;;2.91;95.36;99258.34;5091470;28;20036;-74
2022/01/31 07:59:40;;;;;;;3.95;1.40;;;;;;;2.94;95.83;99263.31;5092731;28;20040;-74
2022/01/31 08:02:05;;;;;;;4.07;1.52;;;;;;;2.91;95.68;99271.66;5093032;28;20043;-75
2022/01/31 08:04:31;;;;;;;3.15;1.10;;;;;;;2.97;95.79;99265.63;5093206;28;20036;-74
2022/01/31 08:06:56;;;;;;;5.55;1.55;;;;;;;2.99;95.85;99268.91;5092914;28;20522;-74
2022/01/31 08:09:21;;;;;;;7.23;2.47;;;;;;;2.98;95.69;99261.94;5093238;28;20028;-74
2022/01/31 08:11:47;;;;;;;10.97;2.47;;;;;;;2.98;96.23;99252.13;5093534;28;20284;-74
2022/01/31 08:14:16;;;;;;;5.60;2.00;;;;;;;2.98;95.81;99244.16;5093211;28;20353;-74
2022/01/31 08:16:42;;;;;;;3.45;1.40;;;;;;;3.03;95.70;99251.59;5093442;28;20039;-74
2022/01/31 08:19:08;;;;;;;6.50;2.08;;;;;;;3.07;95.63;99251.00;5093208;28;20028;-73
2022/01/31 08:21:35;;;;;;;8.07;1.42;;;;;;;2.98;95.52;99236.16;5092833;28;20082;-74
2022/01/31 08:24:01;;;;;;;5.43;1.58;;;;;;;2.94;95.57;99240.19;5092922;28;20425;-76
2022/01/31 08:26:27;;;;;;;3.00;1.30;;;;;;;2.96;95.63;99224.06;5092824;28;20032;-74
2022/01/31 08:29:02;;;;;;;3.83;1.45;;;;;;;2.98;95.99;99216.72;5092819;28;20485;-73
2022/01/31 08:31:32;;;;;;;4.30;1.33;;;;;;;3.00;96.11;99217.34;5092511;28;20390;-75
2022/01/31 08:36:30;;;;;;;5.03;1.83;;;;;;;3.04;95.68;99211.47;5093125;28;20484;-74
2022/01/31 08:38:56;;;;;;;7.30;2.22;;;;;;;3.03;96.00;99217.00;5092587;28;20576;-74
2022/01/31 08:41:24;;;;;;;4.55;1.73;;;;;;;3.04;95.75;99211.47;5093025;28;20039;-74
2022/01/31 08:43:50;;;;;;;9.52;1.92;;;;;;;3.07;95.63;99213.75;5092944;28;20035;-74
2022/01/31 08:46:15;;;;;;;5.57;1.73;;;;;;;3.04;95.21;99197.34;5092582;28;20489;-73
2022/01/31 08:48:41;;;;;;;5.60;2.20;;;;;;;3.03;96.03;99198.38;5092403;28;20429;-74
2022/01/31 08:51:11;;;;;;;8.23;2.35;;;;;;;3.05;95.74;99194.47;5092781;28;20024;-74
2022/01/31 08:53:37;;;;;;;9.93;2.78;;;;;;;3.07;95.55;99195.13;5090986;28;20067;-74
2022/01/31 08:56:04;;;;;;;;;;;;;;;3.07;95.34;99208.41;5093122;28;20463;-74
2022/01/31 08:58:30;;;;;;;;;;;;;;;3.08;95.63;99196.78;5092771;28;19908;-74
2022/01/31 09:01:00;;;;;;;5.22;2.17;;;;;;;3.07;95.79;99215.59;5092869;28;19916;-74
2022/01/31 09:04:02;;;;;;;10.50;2.05;;;;;;;3.09;95.79;99203.75;5091424;28;20089;-74
2022/01/31 09:06:23;;;;;;;3.53;1.10;;;;;;;3.12;96.10;99192.72;5089447;28;20040;-74
2022/01/31 09:08:49;;;;;;;8.98;2.33;;;;;;;3.13;96.01;99194.38;5091182;28;20154;-74
2022/01/31 09:11:15;;;;;;;8.77;1.70;;;;;;;3.10;95.67;99180.63;5095902;28;20174;-74
2022/01/31 09:13:40;;;;;;;7.13;2.20;;;;;;;3.17;95.88;99188.69;5098524;28;20032;-74
2022/01/31 09:16:07;;;;;;;7.05;1.27;;;;;;;3.13;95.94;99194.38;5096726;28;20032;-74
2022/01/31 09:18:32;;;;;;;5.20;1.27;;;;;;;3.14;96.00;99193.38;5096753;28;20530;-74
2022/01/31 09:20:59;;;;;;;7.85;1.60;;;;;;;3.13;95.95;99190.88;5096382;28;20085;-74
2022/01/31 09:23:26;;;;;;;8.40;1.70;;;;;;;3.16;96.10;99187.88;5095035;28;20040;-75
2022/01/31 09:25:52;;;;;;;6.40;2.10;;;;;;;3.18;95.96;99180.53;5096205;28;20024;-75
2022/01/31 09:28:18;;;;;;;5.13;1.08;;;;;;;3.16;95.79;99198.50;5094968;28;20512;-74
2022/01/31 09:30:45;;;;;;;8.63;2.08;;;;;;;3.16;95.90;99174.56;5096013;28;20035;-74
2022/01/31 09:33:11;;;;;;;5.45;1.48;;;;;;;3.17;96.06;99170.06;5096000;28;20028;-74
2022/01/31 09:35:37;;;;;;;;;;;;;;;3.17;95.98;99170.88;5096236;28;20062;-75
2022/01/31 09:38:04;;;;;;;3.58;1.48;;;;;;;3.14;96.22;99180.06;5095849;28;19912;-75
2022/01/31 09:40:30;;;;;;;7.18;1.83;;;;;;;3.16;96.21;99169.22;5096205;28;20028;-74
2022/01/31 09:48:36;;;;;;;6.15;1.48;;;;;;;3.20;96.59;99177.66;5082395;28;20115;-73
2022/01/31 09:51:10;;;;;;;6.47;1.83;;;;;;;3.17;96.46;99196.66;5095973;28;20538;-75
2022/01/31 09:53:42;;;;;;;7.05;1.67;;;;;;;3.21;96.56;99184.66;5095885;28;20028;-74
2022/01/31 09:56:09;;;;;;;10.30;1.48;;;;;;;3.20;96.70;99178.50;5095788;28;20020;-75
2022/01/31 09:58:37;;;;;;;8.65;1.40;;;;;;;3.21;96.80;99184.66;5095122;28;20036;-74
2022/01/31 10:01:17;;;;;;;8.15;1.48;;;;;;;3.22;97.06;99179.13;5095345;28;20483;-73
2022/01/31 10:03:50;;;;;;;8.23;2.40;;;;;;;3.24;97.00;99176.25;5095693;28;20039;-73
2022/01/31 10:06:38;;;;;;;8.45;1.38;;;;;;;3.37;96.89;99192.41;5095279;28;20024;-73
2022/01/31 10:09:17;;;;;;;11.38;1.40;;;;;;;3.23;96.81;99182.59;5095705;28;20089;-73
2022/01/31 10:11:49;;;;;;;8.60;1.95;;;;;;;3.23;96.49;99195.91;5095300;28;20039;-72
2022/01/31 10:17:02;;;;;;;13.45;1.75;;;;;;;3.29;96.79;99187.19;5095081;28;20047;-73
2022/01/31 10:19:27;;;;;;;10.88;1.45;;;;;;;3.40;96.71;99208.78;5094904;28;20111;-73
2022/01/31 10:22:00;;;;;;;4.15;0.90;;;;;;;3.37;97.12;99232.34;5094652;28;20415;-72
2022/01/31 10:24:27;;;;;;;5.82;1.90;;;;;;;3.36;96.61;99220.03;5093811;28;20040;-73
2022/01/31 10:26:54;;;;;;;6.40;1.65;;;;;;;3.43;97.13;99226.25;5095301;28;20405;-74
2022/01/31 10:29:20;;;;;;;;;;;;;;;3.36;96.75;99238.66;5095490;28;20085;-73
2022/01/31 10:32:00;;;;;;;5.63;1.30;;;;;;;3.38;96.75;99247.31;5095124;28;20346;-73
2022/01/31 10:34:27;;;;;;;8.98;1.90;;;;;;;3.39;97.23;99244.44;5095019;28;20028;-73
2022/01/31 10:36:53;;;;;;;5.15;1.92;;;;;;;3.44;97.16;99271.31;5094845;28;20155;-72
2022/01/31 10:45:33;;;;;;;11.23;2.83;;;;;;;3.46;96.70;99252.50;5068800;28;20055;-74
2022/01/31 10:53:49;;;;;;;7.82;2.10;;;;;;;3.38;96.88;99274.75;5094560;28;20428;-74
2022/01/31 10:56:16;;;;;;;7.85;2.33;;;;;;;3.41;96.57;99269.03;5094759;28;20096;-74
2022/01/31 10:59:03;;;;;;;8.13;2.38;;;;;;;3.41;97.33;99285.00;5094379;28;20379;-73
2022/01/31 11:01:29;;;;;;;10.38;2.03;;;;;;;3.40;97.16;99285.22;5094220;28;20032;-74
2022/01/31 11:04:21;;;;;;;4.90;2.20;;;;;;;3.43;97.09;99287.47;5094826;28;20043;-75
2022/01/31 11:06:50;;;;;;;7.88;2.60;;;;;;;3.44;97.53;99289.97;5094612;28;20028;-76
2022/01/31 11:09:17;;;;;;;6.68;2.25;;;;;;;3.42;96.97;99275.19;5095110;28;20032;-75
2022/01/31 11:12:26;;;;;;;;;;;;;;;;;;;;;
2022/01/31 11:14:54;;;;;;;11.63;2.85;;;;;;;3.40;96.75;99290.53;5071865;28;20062;-75
2022/01/31 11:17:19;;;;;;;7.13;1.73;;;;;;;3.46;97.18;99282.63;5092323;28;20493;-74
2022/01/31 11:19:54;;;;;;;4.25;1.83;;;;;;;3.49;97.03;99294.72;5094085;28;20032;-73
2022/01/31 11:22:28;;;;;;;4.40;1.48;;;;;;;3.50;97.18;99301.72;5094965;28;20081;-74
2022/01/31 11:24:59;;;;;;;9.30;1.60;;;;;;;3.56;96.88;99308.97;5092615;28;20039;-74
2022/01/31 11:27:27;;;;;;;6.18;1.85;;;;;;;3.52;96.65;99313.00;5093856;28;20028;-73
2022/01/31 11:29:56;;;;;;;12.00;1.73;;;;;;;3.48;97.01;99301.06;5094057;28;20040;-73
2022/01/31 11:32:26;;;;;;;14.40;2.40;;;;;;;3.46;97.02;99319.91;5093426;28;20111;-73
2022/01/31 11:34:55;;;;;;;9.68;2.40;;;;;;;3.48;97.21;99317.88;5094279;28;20355;-73
2022/01/31 11:37:22;;;;;;;10.13;1.50;;;;;;;3.53;97.09;99321.81;5092694;28;20065;-73
2022/01/31 11:40:01;;;;;;;10.50;2.70;;;;;;;3.49;96.95;99294.72;5093743;28;20536;-73
2022/01/31 11:42:27;;;;;;;6.30;1.80;;;;;;;3.50;96.89;99325.69;5094064;28;20224;-72
2022/01/31 11:44:56;;;;;;;;;;;;;;;3.52;96.81;99336.16;5092998;28;20054;-74
2022/01/31 11:47:23;;;;;;;3.13;1.42;;;;;;;3.54;96.63;99348.28;5093401;28;19965;-73
2022/01/31 11:49:52;;;;;;;10.25;2.60;;;;;;;3.54;96.69;99337.63;5092450;28;20067;-74
2022/01/31 11:52:19;;;;;;;8.75;1.70;;;;;;;3.59;97.19;99359.19;5092445;28;20078;-75
2022/01/31 11:54:47;;;;;;;6.07;2.20;;;;;;;3.61;96.86;99351.81;5093462;28;20024;-74
2022/01/31 11:57:21;;;;;;;9.45;2.67;;;;;;;3.65;96.71;99350.44;5092052;28;20077;-73
2022/01/31 11:59:52;;;;;;;11.00;1.38;;;;;;;3.64;96.58;99362.13;5093356;28;20059;-73
2022/01/31 12:02:21;;;;;;;7.82;1.38;;;;;;;3.67;96.56;99347.59;5093093;28;20105;-73
2022/01/31 12:04:49;;;;;;;11.10;2.50;;;;;;;3.66;96.38;99384.06;5093571;28;20034;-73
2022/01/31 12:07:42;;;;;;;14.48;1.88;;;;;;;3.71;96.74;99378.19;5092910;28;20035;-74